Flight Track Log - Related Links

Times and Time Zones

All times are in EDT time to prevent confusion due to time zone crossing. See the EJA658 flight status page for this flight to view local times or setup timezone preferences in your user account.

Time Position Orientation Groundspeed Altitude Reporting Facility
EDT Latitude Longitude Course Direction KTS MPH feet Rate Location/Type
Sun 04:08:42 PM 40.8658 -77.7906 74° East 392 451 17,000  Level New York Center
Sun 04:09:39 PM 40.8833 -77.7044 75° East 311 358 5,200 -4,424 Descending New York Center
Sun 04:10:40 PM 40.9003 -77.6294 73° East 270 311 8,300 3,570 Climbing New York Center
Sun 04:11:40 PM 40.9186 -77.5294 76° East 263 303 12,400 3,669 Climbing New York Center
Sun 04:12:00 PM 40.9760 -77.1819 73° East  Level FlightAware Approximate
Sun 04:12:41 PM 40.9417 -77.4164 75° East 285 328 15,700  Level New York Center
Sun 04:13:00 PM 41.0037 -77.0500 74° East  Level FlightAware Approximate
Sun 04:13:41 PM 40.9703 -77.2736 75° East 323 372 17,100  Level New York Center
Sun 04:14:00 PM 41.0329 -76.9186 74° East  Level FlightAware Approximate
Sun 04:14:41 PM 40.9967 -77.1331 76° East 369 425 17,100  Level New York Center
Sun 04:15:40 PM 41.0250 -76.9925 75° East 388 447 17,100  Level New York Center
Sun 04:16:40 PM 41.0533 -76.8492 75° East 393 452 17,100  Level New York Center
Sun 04:17:42 PM 41.0811 -76.7086 75° East 393 452 17,100  Level New York Center
Sun 04:18:39 PM 41.1072 -76.5650 76° East 393 452 17,100  Level New York Center
Sun 04:19:40 PM 41.1347 -76.4239 75° East 393 452 17,100  Level New York Center
Sun 04:20:40 PM 41.1622 -76.2831 75° East 393 452 17,100  Level New York Center
Sun 04:21:41 PM 41.1869 -76.1525 76° East 393 452 17,100  Level New York Center
Sun 04:22:42 PM 41.2169 -75.9950 76° East 393 452 17,100 -51 Level New York Center
Sun 04:23:39 PM 41.2442 -75.8508 76° East 393 452 17,000 -102 Descending New York Center
Sun 04:24:40 PM 41.2647 -75.7089 79° East 393 452 16,900 -689 Descending New York Center
Sun 04:25:41 PM 41.2383 -75.5856 106° East 377 434 15,600 -1,438 Descending New York Center
Sun 04:26:41 PM 41.1900 -75.4414 114° Southeast 382 440 14,000 -1,815 Descending New York Center
Sun 04:27:40 PM 41.1508 -75.3231 114° Southeast 366 421 12,000 -1,900 Descending New York Center
Sun 04:28:41 PM 41.1117 -75.2075 114° Southeast 347 399 10,200 -1,714 Descending New York Center
Sun 04:29:39 PM 41.0836 -75.1231 114° Southeast 303 349 8,600 -1,627 Descending New York Center
Sun 04:30:39 PM 41.0533 -75.0331 114° Southeast 272 313 7,000 -1,300 Descending New York Center
Sun 04:31:39 PM 41.0128 -74.9453 121° Southeast 260 299 6,000 -650 Descending New York Center
Sun 04:32:39 PM 40.9736 -74.8742 126° Southeast 266 306 5,700 -700 Descending New York Center
Sun 04:33:39 PM 40.9264 -74.7944 128° Southeast 262 302 4,600 -800 Descending New York Center
Sun 04:34:39 PM 40.8908 -74.7347 128° Southeast 239 275 4,100 -246 Descending New York Center
Sun 04:35:41 PM 40.8431 -74.6744 136° Southeast 221 254 4,100 -197 Level New York Center
Sun 04:36:41 PM 40.7914 -74.6606 168° South 209 241 3,700 -712 Descending New York Center
Sun 04:37:39 PM 40.7294 -74.6406 166° South 214 246 2,700 -857 Descending New York Center
Sun 04:38:40 PM 40.6861 -74.6242 164° South 199 229 2,000 -404 Descending New York Center
Sun 04:39:08 PM 40.6667 -74.6000 137° Southeast 186 214 2,100 68 Climbing New York TRACON
Sun 04:40:08 PM 40.6833 -74.5500 66° East 172 198 2,100  Level New York TRACON
Sun 04:41:08 PM 40.7167 -74.5167 37° Northeast 178 205 2,100 -150 Level New York TRACON
Sun 04:42:08 PM 40.7500 -74.4667 49° Northeast 165 190 1,800 -600 Descending New York TRACON
Sun 04:43:08 PM 40.7667 -74.4333 57° Northeast 119 137 900 -900 Descending New York TRACON
Sun 04:45:00 PM 40.7833 -74.4000 63° Northeast  Level FlightAware Approximate
Sun 04:52:00 PM 40.7993 -74.4149 63° Northeast  Level Estimated
Sun 04:53:00 PM 40.7993 -74.4149 63° Northeast  Level Estimated

Login

Don't have an account? Register now (free) for customized features, flight alerts, and more!